Time;durP1;ratioP1;P1;durP2;ratioP2;P2;SDS_P1;SDS_P2;PMS_P1;PMS_P2;Temp;Humidity;BMP_temperature;BMP_pressure;BME280_temperature;BME280_humidity;BME280_pressure;Samples;Min_cycle;Max_cycle;Signal;HPM_P1;HPM_P2
2022/10/26 00:00:40;;;;;;;17.67;5.60;;;;;;;;;;5079697;28;20032;-77
2022/10/26 00:03:05;;;;;;;17.95;5.57;;;;;;;;;;5080074;28;20229;-78
2022/10/26 00:05:34;;;;;;;16.45;5.90;;;;;;;;;;5079877;28;20024;-78
2022/10/26 00:08:00;;;;;;;20.48;5.88;;;;;;;;;;5080634;28;20035;-78
2022/10/26 00:10:26;;;;;;;15.73;6.03;;;;;;;;;;5080170;28;20349;-77
2022/10/26 00:12:51;;;;;;;17.67;5.97;;;;;;;;;;5060929;28;20087;-79
2022/10/26 00:15:18;;;;;;;19.63;5.90;;;;;;;;;;5081174;28;20257;-79
2022/10/26 00:17:45;;;;;;;15.80;5.63;;;;;;;;;;5081614;28;20028;-78
2022/10/26 00:20:11;;;;;;;21.75;6.22;;;;;;;;;;5077366;28;20032;-78
2022/10/26 00:22:36;;;;;;;17.48;5.35;;;;;;;;;;5081378;28;20031;-78
2022/10/26 00:25:02;;;;;;;16.92;5.90;;;;;;;;;;5081198;28;20301;-78
2022/10/26 00:27:27;;;;;;;13.60;5.20;;;;;;;;;;5078983;28;20032;-78
2022/10/26 00:29:52;;;;;;;16.20;5.90;;;;;;;;;;5069357;28;20056;-78
2022/10/26 00:32:18;;;;;;;17.02;5.95;;;;;;;;;;5069765;28;20035;-78
2022/10/26 00:34:43;;;;;;;14.13;5.43;;;;;;;;;;5069499;28;20489;-78
2022/10/26 00:37:09;;;;;;;18.38;5.57;;;;;;;;;;5069729;28;20020;-78
2022/10/26 00:39:34;;;;;;;17.88;5.45;;;;;;;;;;5069473;28;20020;-78
2022/10/26 00:41:59;;;;;;;18.20;5.95;;;;;;;;;;5069566;28;20492;-79
2022/10/26 00:44:47;;;;;;;17.52;5.15;;;;;;;;;;5072658;28;20027;-78
2022/10/26 00:47:24;;;;;;;19.75;5.70;;;;;;;;;;5070314;28;20027;-79
2022/10/26 00:49:52;;;;;;;16.85;5.38;;;;;;;;;;5069400;28;20108;-79
2022/10/26 00:52:18;;;;;;;16.92;4.93;;;;;;;;;;5051478;28;20024;-78
2022/10/26 00:54:44;;;;;;;15.75;6.30;;;;;;;;;;5069396;28;20037;-79
2022/10/26 00:57:13;;;;;;;19.65;5.63;;;;;;;;;;5069431;28;20025;-77
2022/10/26 00:59:39;;;;;;;19.50;5.50;;;;;;;;;;5069406;28;20554;-80
2022/10/26 01:02:04;;;;;;;12.70;5.32;;;;;;;;;;5069725;28;20024;-79
2022/10/26 01:04:31;;;;;;;19.75;5.70;;;;;;;;;;5069573;28;20017;-78
2022/10/26 01:06:57;;;;;;;12.23;5.90;;;;;;;;;;5069187;28;20055;-78
2022/10/26 01:09:23;;;;;;;13.93;5.80;;;;;;;;;;5069449;28;20108;-79
2022/10/26 01:11:48;;;;;;;21.23;5.88;;;;;;;;;;5069124;28;20063;-78
2022/10/26 01:14:17;;;;;;;14.15;5.65;;;;;;;;;;5051349;28;20071;-77
2022/10/26 01:16:58;;;;;;;14.48;5.80;;;;;;;;;;5069204;28;20032;-78
2022/10/26 01:19:38;;;;;;;21.08;6.18;;;;;;;;;;5051334;28;20052;-78
2022/10/26 01:22:11;;;;;;;;;;;;;;;;;;5070011;28;20033;-78
2022/10/26 01:25:17;;;;;;;14.77;5.22;;;;;;;;;;5073098;28;20381;-77
2022/10/26 01:27:45;;;;;;;16.10;5.78;;;;;;;;;;5054614;28;20044;-78
2022/10/26 01:30:20;;;;;;;17.35;5.78;;;;;;;;;;5072789;28;20029;-79
2022/10/26 01:33:07;;;;;;;14.65;5.75;;;;;;;;;;5072741;28;20016;-78
2022/10/26 01:36:04;;;;;;;18.27;5.70;;;;;;;;;;5072592;28;20040;-77
2022/10/26 01:38:39;;;;;;;18.42;5.43;;;;;;;;;;5054777;28;20585;-76
2022/10/26 01:41:14;;;;;;;15.98;5.45;;;;;;;;;;5072295;28;20099;-77
2022/10/26 01:43:45;;;;;;;20.05;5.75;;;;;;;;;;5072506;28;20534;-77
2022/10/26 01:46:13;;;;;;;14.50;5.97;;;;;;;;;;5054193;28;20115;-77
2022/10/26 01:48:40;;;;;;;17.27;6.45;;;;;;;;;;5071324;28;20051;-78
2022/10/26 01:51:08;;;;;;;15.15;5.88;;;;;;;;;;5069913;28;20040;-78
2022/10/26 01:53:33;;;;;;;22.10;6.03;;;;;;;;;;5092759;28;20042;-78
2022/10/26 01:56:00;;;;;;;14.38;5.88;;;;;;;;;;5092312;28;20131;-77
2022/10/26 01:58:41;;;;;;;16.73;5.97;;;;;;;;;;5092462;28;20041;-78
2022/10/26 02:01:21;;;;;;;18.73;6.38;;;;;;;;;;5092566;28;20067;-78
2022/10/26 02:03:55;;;;;;;16.42;5.90;;;;;;;;;;5092543;28;20047;-78
2022/10/26 02:07:14;;;;;;;15.15;6.13;;;;;;;;;;5092318;28;20064;-78
2022/10/26 02:10:11;;;;;;;15.85;5.82;;;;;;;;;;5037011;28;20595;-78
2022/10/26 02:12:57;;;;;;;14.48;5.28;;;;;;;;;;5092576;28;20055;-78
2022/10/26 02:15:48;;;;;;;17.98;6.07;;;;;;;;;;5092368;28;20023;-78
2022/10/26 02:18:22;;;;;;;16.90;5.65;;;;;;;;;;5091453;28;20040;-78
2022/10/26 02:20:53;;;;;;;18.88;6.05;;;;;;;;;;5091915;28;20048;-78
2022/10/26 02:23:22;;;;;;;17.05;6.05;;;;;;;;;;5092044;28;20021;-78
2022/10/26 02:25:53;;;;;;;17.85;5.65;;;;;;;;;;5092129;28;20023;-77
2022/10/26 02:28:21;;;;;;;;;;;;;;;;;;5092313;28;20028;-77
2022/10/26 02:30:49;;;;;;;15.93;6.03;;;;;;;;;;5091943;28;19912;-77
2022/10/26 02:33:16;;;;;;;12.38;6.00;;;;;;;;;;5091596;28;20028;-77
2022/10/26 02:35:47;;;;;;;17.63;7.00;;;;;;;;;;5091210;28;20032;-77
2022/10/26 02:38:15;;;;;;;18.00;6.50;;;;;;;;;;5073492;28;20054;-76
2022/10/26 02:40:41;;;;;;;16.60;6.68;;;;;;;;;;5091682;28;20036;-77
2022/10/26 02:43:12;;;;;;;12.43;6.22;;;;;;;;;;5091563;28;20024;-76
2022/10/26 02:45:45;;;;;;;15.65;6.68;;;;;;;;;;5094277;28;20024;-77
2022/10/26 02:48:10;;;;;;;18.67;6.95;;;;;;;;;;5073619;28;20031;-78
2022/10/26 02:50:57;;;;;;;20.63;6.65;;;;;;;;;;5091749;28;20020;-78
2022/10/26 02:53:38;;;;;;;18.67;6.85;;;;;;;;;;5091298;28;20099;-76
2022/10/26 02:56:07;;;;;;;;;;;;;;;;;;5091832;28;20085;-77
2022/10/26 02:58:39;;;;;;;16.55;6.70;;;;;;;;;;5091099;28;19965;-76
2022/10/26 03:01:04;;;;;;;20.30;7.18;;;;;;;;;;5091285;28;20028;-78
2022/10/26 03:03:30;;;;;;;19.00;7.28;;;;;;;;;;5091271;28;20028;-77
2022/10/26 03:05:55;;;;;;;20.02;6.95;;;;;;;;;;5073229;28;20024;-77
2022/10/26 03:08:20;;;;;;;18.63;7.40;;;;;;;;;;5091038;28;20139;-77
2022/10/26 03:10:46;;;;;;;18.13;7.28;;;;;;;;;;5090888;28;20051;-76
2022/10/26 03:13:12;;;;;;;20.92;7.07;;;;;;;;;;5090738;28;20067;-77
2022/10/26 03:15:38;;;;;;;15.52;6.78;;;;;;;;;;5072939;28;20024;-77
2022/10/26 03:18:04;;;;;;;20.95;7.03;;;;;;;;;;5090991;28;20028;-77
2022/10/26 03:20:30;;;;;;;16.80;7.03;;;;;;;;;;5091023;28;20097;-77
2022/10/26 03:22:58;;;;;;;19.02;7.13;;;;;;;;;;5089450;28;20028;-77
2022/10/26 03:25:24;;;;;;;19.02;7.30;;;;;;;;;;5089709;28;20031;-77
2022/10/26 03:28:00;;;;;;;21.05;6.97;;;;;;;;;;5090453;28;20427;-77
2022/10/26 03:30:27;;;;;;;21.70;7.47;;;;;;;;;;5090464;28;20382;-77
2022/10/26 03:32:53;;;;;;;19.63;6.95;;;;;;;;;;5090882;28;20085;-77
2022/10/26 03:35:18;;;;;;;17.02;7.10;;;;;;;;;;5072464;28;20024;-77
2022/10/26 03:37:46;;;;;;;17.85;7.10;;;;;;;;;;5090693;28;20105;-78
2022/10/26 03:40:12;;;;;;;18.25;7.32;;;;;;;;;;5072389;28;20032;-77
2022/10/26 03:42:38;;;;;;;19.98;7.40;;;;;;;;;;5090373;28;20077;-77
2022/10/26 03:45:04;;;;;;;19.33;7.28;;;;;;;;;;5072155;28;20077;-77
2022/10/26 03:47:30;;;;;;;14.85;6.80;;;;;;;;;;5090126;28;20472;-78
2022/10/26 03:49:55;;;;;;;19.90;7.43;;;;;;;;;;5090492;28;20031;-78
2022/10/26 03:52:23;;;;;;;21.75;8.15;;;;;;;;;;5090382;28;20028;-78
2022/10/26 03:54:48;;;;;;;18.55;7.47;;;;;;;;;;5090555;28;20126;-78
2022/10/26 03:57:14;;;;;;;18.70;6.90;;;;;;;;;;5072275;28;20059;-78
2022/10/26 03:59:40;;;;;;;18.33;6.78;;;;;;;;;;5090290;28;20035;-78
2022/10/26 04:02:05;;;;;;;18.90;6.60;;;;;;;;;;5089996;28;20032;-78
2022/10/26 04:04:31;;;;;;;17.08;6.70;;;;;;;;;;5071979;28;20229;-78
2022/10/26 04:06:56;;;;;;;21.65;7.45;;;;;;;;;;5090226;28;20016;-78
2022/10/26 04:09:22;;;;;;;18.38;7.40;;;;;;;;;;5090143;28;20097;-77
2022/10/26 04:11:47;;;;;;;17.15;7.60;;;;;;;;;;5090006;28;20031;-78
2022/10/26 04:14:12;;;;;;;16.33;7.22;;;;;;;;;;5088554;28;20038;-78
2022/10/26 04:16:38;;;;;;;15.77;7.10;;;;;;;;;;5090181;28;20024;-78
2022/10/26 04:19:03;;;;;;;18.70;7.20;;;;;;;;;;5089963;28;20032;-78
2022/10/26 04:21:31;;;;;;;21.73;7.07;;;;;;;;;;5071788;28;20028;-78
2022/10/26 04:23:57;;;;;;;16.70;6.93;;;;;;;;;;5089798;28;20020;-78
2022/10/26 04:26:22;;;;;;;19.90;6.95;;;;;;;;;;5090011;28;20030;-78
2022/10/26 04:28:47;;;;;;;19.90;6.75;;;;;;;;;;5071238;28;20066;-78
2022/10/26 04:31:13;;;;;;;19.88;7.15;;;;;;;;;;5071707;28;20048;-78
2022/10/26 04:33:38;;;;;;;17.02;7.03;;;;;;;;;;5089704;28;20027;-78
2022/10/26 04:36:04;;;;;;;20.20;7.10;;;;;;;;;;5089938;28;20040;-78
2022/10/26 04:38:29;;;;;;;20.33;7.55;;;;;;;;;;5088256;28;20586;-78
2022/10/26 04:40:54;;;;;;;18.42;7.15;;;;;;;;;;5089597;28;20442;-78
2022/10/26 04:43:20;;;;;;;18.92;6.70;;;;;;;;;;5089412;28;20027;-78
2022/10/26 04:45:45;;;;;;;14.85;6.53;;;;;;;;;;5055010;28;20016;-78
2022/10/26 04:48:12;;;;;;;16.08;7.18;;;;;;;;;;5089622;28;20110;-78
2022/10/26 04:50:39;;;;;;;17.42;6.93;;;;;;;;;;5089543;28;20154;-78
2022/10/26 04:53:06;;;;;;;19.40;7.55;;;;;;;;;;5089558;28;20085;-77
2022/10/26 04:55:32;;;;;;;18.73;6.93;;;;;;;;;;5089511;28;20168;-78
2022/10/26 04:57:57;;;;;;;15.65;6.95;;;;;;;;;;5091317;28;20568;-77
2022/10/26 05:00:22;;;;;;;20.98;7.70;;;;;;;;;;5092199;28;20027;-77
2022/10/26 05:02:48;;;;;;;17.80;7.15;;;;;;;;;;5093689;28;20157;-77
2022/10/26 05:05:13;;;;;;;20.63;7.60;;;;;;;;;;5093653;28;20130;-78
2022/10/26 05:07:39;;;;;;;24.52;7.70;;;;;;;;;;5093602;28;20031;-76
2022/10/26 05:10:05;;;;;;;17.02;7.75;;;;;;;;;;5093536;28;20110;-78
2022/10/26 05:12:30;;;;;;;14.38;6.72;;;;;;;;;;5093065;28;20034;-78
2022/10/26 05:14:57;;;;;;;22.88;7.53;;;;;;;;;;5093225;28;20024;-77
2022/10/26 05:17:24;;;;;;;19.75;7.30;;;;;;;;;;5093591;28;20024;-77
2022/10/26 05:19:54;;;;;;;19.85;7.93;;;;;;;;;;5093369;28;20027;-78
2022/10/26 05:22:23;;;;;;;16.70;7.60;;;;;;;;;;5074890;28;20120;-78
2022/10/26 05:24:48;;;;;;;20.70;7.78;;;;;;;;;;5074762;28;20115;-78
2022/10/26 05:27:14;;;;;;;19.15;7.68;;;;;;;;;;5093259;28;20111;-78
2022/10/26 05:29:40;;;;;;;19.38;7.95;;;;;;;;;;5091712;28;20036;-78
2022/10/26 05:32:05;;;;;;;23.13;7.47;;;;;;;;;;5074853;28;20035;-78
2022/10/26 05:34:31;;;;;;;23.75;8.13;;;;;;;;;;5091811;28;20063;-78
2022/10/26 05:36:56;;;;;;;22.33;8.00;;;;;;;;;;5093114;28;20077;-78
2022/10/26 05:39:21;;;;;;;19.85;7.72;;;;;;;;;;5092907;28;20540;-78
2022/10/26 05:41:47;;;;;;;20.77;8.18;;;;;;;;;;5074639;28;20028;-77
2022/10/26 05:44:12;;;;;;;18.98;7.43;;;;;;;;;;5091531;28;20518;-78
2022/10/26 05:46:37;;;;;;;22.20;8.38;;;;;;;;;;5074659;28;20102;-78
2022/10/26 05:49:03;;;;;;;19.75;7.93;;;;;;;;;;5092548;28;20024;-78
2022/10/26 05:51:29;;;;;;;21.38;7.82;;;;;;;;;;5092513;28;20357;-77
2022/10/26 05:53:54;;;;;;;18.60;7.75;;;;;;;;;;5074186;28;20031;-77
2022/10/26 05:56:33;;;;;;;18.70;7.88;;;;;;;;;;5092863;28;20027;-78
2022/10/26 05:58:58;;;;;;;18.52;7.97;;;;;;;;;;5074435;28;20032;-79
2022/10/26 06:01:49;;;;;;;21.27;8.57;;;;;;;;;;5091129;28;20111;-80
2022/10/26 06:04:37;;;;;;;21.63;8.05;;;;;;;;;;5091057;28;20487;-76
2022/10/26 06:07:11;;;;;;;18.55;8.43;;;;;;;;;;5092759;28;20681;-83
2022/10/26 06:09:37;;;;;;;20.95;9.15;;;;;;;;;;5091724;28;20471;-80
2022/10/26 06:12:03;;;;;;;25.90;9.02;;;;;;;;;;5074997;28;20024;-80
2022/10/26 06:14:29;;;;;;;24.17;9.35;;;;;;;;;;5092317;28;20031;-77
2022/10/26 06:17:14;;;;;;;22.88;8.80;;;;;;;;;;5074449;28;20032;-87
2022/10/26 06:19:57;;;;;;;27.90;9.63;;;;;;;;;;5040384;28;20127;-78
2022/10/26 06:22:30;;;;;;;24.45;9.52;;;;;;;;;;5092225;28;20024;-79
2022/10/26 06:25:19;;;;;;;25.77;10.05;;;;;;;;;;5091858;28;20035;-75
2022/10/26 06:28:09;;;;;;;22.35;9.57;;;;;;;;;;5092160;28;20031;-77
2022/10/26 06:30:35;;;;;;;27.30;11.10;;;;;;;;;;5092129;28;20020;-80
2022/10/26 06:33:01;;;;;;;31.85;10.77;;;;;;;;;;5093477;28;20016;-79
2022/10/26 06:35:39;;;;;;;31.88;11.10;;;;;;;;;;5092182;28;20380;-77
2022/10/26 06:38:10;;;;;;;32.72;11.63;;;;;;;;;;5092422;28;20028;-77
2022/10/26 06:40:39;;;;;;;29.80;11.65;;;;;;;;;;5091977;28;20035;-78
2022/10/26 06:43:12;;;;;;;27.95;11.43;;;;;;;;;;5091741;28;20051;-80
2022/10/26 06:45:43;;;;;;;29.85;12.38;;;;;;;;;;5091871;28;20468;-80
2022/10/26 06:48:14;;;;;;;25.33;11.82;;;;;;;;;;5091854;28;20092;-80
2022/10/26 06:50:53;;;;;;;31.70;12.10;;;;;;;;;;5091631;28;20067;-78
2022/10/26 06:53:32;;;;;;;34.95;12.98;;;;;;;;;;5093647;28;20043;-75
2022/10/26 06:55:58;;;;;;;35.08;12.82;;;;;;;;;;5100589;28;20040;-78
2022/10/26 06:58:29;;;;;;;31.58;13.38;;;;;;;;;;5100549;28;20083;-78
2022/10/26 07:00:55;;;;;;;35.80;13.48;;;;;;;;;;5099980;28;20028;-79
2022/10/26 07:03:21;;;;;;;31.80;13.10;;;;;;;;;;5082378;28;20047;-81
2022/10/26 07:05:47;;;;;;;31.73;12.55;;;;;;;;;;5102240;28;20112;-79
2022/10/26 07:08:12;;;;;;;35.58;13.98;;;;;;;;;;5094180;28;20099;-80
2022/10/26 07:10:38;;;;;;;38.20;12.18;;;;;;;;;;5081855;28;20028;-82
2022/10/26 07:13:05;;;;;;;27.85;12.00;;;;;;;;;;5095942;28;20020;-77
2022/10/26 07:15:31;;;;;;;30.83;12.07;;;;;;;;;;5095449;28;20395;-77
2022/10/26 07:17:56;;;;;;;27.55;11.57;;;;;;;;;;5093411;28;20020;-77
2022/10/26 07:20:22;;;;;;;35.90;12.30;;;;;;;;;;5097244;28;20051;-77
2022/10/26 07:22:52;;;;;;;26.38;11.98;;;;;;;;;;5101298;28;20024;-78
2022/10/26 07:25:17;;;;;;;34.33;12.05;;;;;;;;;;5101988;28;20024;-77
2022/10/26 07:27:43;;;;;;;33.88;11.65;;;;;;;;;;5083954;28;20078;-77
2022/10/26 07:30:09;;;;;;;34.30;12.23;;;;;;;;;;5100423;28;20027;-79
2022/10/26 07:32:34;;;;;;;31.58;12.23;;;;;;;;;;5100665;28;20035;-76
2022/10/26 07:34:59;;;;;;;39.08;12.43;;;;;;;;;;5098521;28;20490;-75
2022/10/26 07:37:25;;;;;;;30.20;11.88;;;;;;;;;;5093749;28;20028;-77
2022/10/26 07:39:50;;;;;;;28.45;11.73;;;;;;;;;;5099771;28;20016;-76
2022/10/26 07:42:16;;;;;;;36.42;12.20;;;;;;;;;;5092881;28;20023;-77
2022/10/26 07:44:41;;;;;;;24.73;11.05;;;;;;;;;;5090991;28;20598;-80
2022/10/26 07:47:07;;;;;;;28.15;12.00;;;;;;;;;;5090873;28;20020;-78
2022/10/26 07:49:33;;;;;;;25.52;11.25;;;;;;;;;;5090444;28;20020;-82
2022/10/26 07:51:58;;;;;;;30.58;11.95;;;;;;;;;;5090179;28;20024;-74
2022/10/26 07:54:24;;;;;;;33.63;11.13;;;;;;;;;;5090377;28;20036;-76
2022/10/26 07:56:49;;;;;;;25.92;10.63;;;;;;;;;;5072015;28;20526;-78
2022/10/26 07:59:15;;;;;;;24.60;9.70;;;;;;;;;;5086371;28;20108;-74
2022/10/26 08:01:42;;;;;;;26.58;9.88;;;;;;;;;;5078307;28;20541;-75
2022/10/26 08:04:08;;;;;;;26.45;10.20;;;;;;;;;;5079329;28;20024;-76
2022/10/26 08:06:33;;;;;;;26.02;9.75;;;;;;;;;;5071805;28;20058;-75
2022/10/26 08:08:58;;;;;;;24.85;10.10;;;;;;;;;;5076142;28;20373;-76
2022/10/26 08:11:24;;;;;;;25.80;9.35;;;;;;;;;;5051761;28;20028;-75
2022/10/26 08:13:53;;;;;;;25.27;9.00;;;;;;;;;;5069711;28;20035;-75
2022/10/26 08:16:19;;;;;;;23.08;8.55;;;;;;;;;;5073507;28;20685;-75
2022/10/26 08:18:50;;;;;;;22.83;8.43;;;;;;;;;;5072091;28;20027;-77
2022/10/26 08:21:16;;;;;;;15.82;7.47;;;;;;;;;;5089976;28;20103;-77
2022/10/26 08:23:42;;;;;;;24.50;7.68;;;;;;;;;;5089851;28;20031;-77
2022/10/26 08:26:11;;;;;;;29.27;7.90;;;;;;;;;;5071709;28;20106;-75
2022/10/26 08:28:38;;;;;;;17.25;6.90;;;;;;;;;;5089815;28;20039;-75
2022/10/26 08:31:04;;;;;;;21.92;7.13;;;;;;;;;;5092973;28;20035;-75
2022/10/26 08:33:29;;;;;;;22.70;7.38;;;;;;;;;;5086913;28;20021;-75
2022/10/26 08:36:00;;;;;;;26.48;7.00;;;;;;;;;;5069669;28;20029;-75
2022/10/26 08:38:25;;;;;;;21.48;6.55;;;;;;;;;;5069760;28;20400;-75
2022/10/26 08:40:51;;;;;;;23.48;6.78;;;;;;;;;;5069481;28;20575;-76
2022/10/26 08:43:39;;;;;;;22.75;6.60;;;;;;;;;;5069239;28;20135;-75
2022/10/26 08:46:16;;;;;;;27.23;6.57;;;;;;;;;;5063599;28;20621;-74
2022/10/26 08:48:46;;;;;;;21.13;6.30;;;;;;;;;;5079344;28;20486;-76
2022/10/26 08:51:23;;;;;;;27.58;6.25;;;;;;;;;;5083871;28;20085;-79
2022/10/26 08:53:59;;;;;;;21.52;5.82;;;;;;;;;;5068297;28;20492;-77
2022/10/26 08:56:37;;;;;;;24.17;6.53;;;;;;;;;;5086257;28;20043;-77
2022/10/26 08:59:15;;;;;;;24.02;5.82;;;;;;;;;;5088751;28;20035;-74
2022/10/26 09:01:40;;;;;;;22.40;6.03;;;;;;;;;;5088841;28;20031;-76
2022/10/26 09:04:11;;;;;;;20.55;6.38;;;;;;;;;;5059726;28;20025;-76
2022/10/26 09:06:40;;;;;;;28.38;6.03;;;;;;;;;;5050399;28;20124;-77
2022/10/26 09:09:14;;;;;;;22.23;6.20;;;;;;;;;;5068414;28;20067;-74
2022/10/26 09:11:51;;;;;;;24.77;6.38;;;;;;;;;;5067830;28;20060;-75
2022/10/26 09:14:24;;;;;;;26.95;6.72;;;;;;;;;;5049966;28;20024;-78
2022/10/26 09:16:58;;;;;;;21.20;5.97;;;;;;;;;;5066303;28;20656;-79
2022/10/26 09:19:46;;;;;;;23.67;6.93;;;;;;;;;;5048859;28;20244;-77
2022/10/26 09:22:31;;;;;;;27.70;7.05;;;;;;;;;;5067744;28;20035;-75
2022/10/26 09:25:07;;;;;;;26.50;6.82;;;;;;;;;;5067985;28;20103;-78
2022/10/26 09:27:42;;;;;;;25.60;6.43;;;;;;;;;;5068054;28;20072;-80
2022/10/26 09:30:17;;;;;;;24.85;6.18;;;;;;;;;;5068523;28;20021;-80
2022/10/26 09:32:47;;;;;;;21.58;6.13;;;;;;;;;;5067678;28;20417;-78
2022/10/26 09:35:23;;;;;;;27.20;6.70;;;;;;;;;;5068836;28;20024;-84
2022/10/26 09:38:05;;;;;;;28.30;5.63;;;;;;;;;;5049817;28;20507;-78
2022/10/26 09:40:56;;;;;;;26.65;5.85;;;;;;;;;;5068814;28;20028;-79
2022/10/26 09:43:39;;;;;;;26.55;6.40;;;;;;;;;;5068972;28;20149;-81
2022/10/26 09:46:04;;;;;;;24.35;6.15;;;;;;;;;;5053593;28;20024;-76
2022/10/26 09:48:40;;;;;;;24.40;6.10;;;;;;;;;;5071834;28;20111;-80
2022/10/26 09:51:06;;;;;;;24.92;6.05;;;;;;;;;;5072204;28;20032;-78
2022/10/26 09:53:31;;;;;;;23.23;5.78;;;;;;;;;;5072151;28;20036;-80
2022/10/26 09:56:10;;;;;;;24.05;6.70;;;;;;;;;;5071721;28;20059;-81
2022/10/26 09:59:01;;;;;;;19.08;4.70;;;;;;;;;;5071353;28;20025;-86
2022/10/26 10:01:26;;;;;;;24.02;5.75;;;;;;;;;;5071442;28;20517;-77
2022/10/26 10:04:19;;;;;;;20.13;5.35;;;;;;;;;;5054222;28;20115;-77
2022/10/26 10:06:47;;;;;;;21.23;5.28;;;;;;;;;;5053145;28;20392;-77
2022/10/26 10:09:15;;;;;;;24.33;5.40;;;;;;;;;;5071056;28;20540;-74
2022/10/26 10:11:55;;;;;;;22.08;5.30;;;;;;;;;;5088969;28;20397;-73
2022/10/26 10:14:23;;;;;;;20.75;5.15;;;;;;;;;;5072839;28;20016;-74
2022/10/26 10:17:19;;;;;;;24.95;5.28;;;;;;;;;;5091176;28;20044;-79
2022/10/26 10:19:45;;;;;;;27.67;5.28;;;;;;;;;;5062569;28;20127;-76
2022/10/26 10:22:14;;;;;;;17.15;4.93;;;;;;;;;;5091112;28;20580;-72
2022/10/26 10:25:00;;;;;;;24.40;5.70;;;;;;;;;;5090917;28;20021;-70
2022/10/26 10:27:27;;;;;;;19.52;5.50;;;;;;;;;;5072289;28;20119;-74
2022/10/26 10:29:57;;;;;;;17.60;5.20;;;;;;;;;;5089912;28;20148;-74
2022/10/26 10:32:30;;;;;;;18.48;4.95;;;;;;;;;;5090459;28;20020;-78
2022/10/26 10:34:57;;;;;;;18.88;5.30;;;;;;;;;;5073526;28;20063;-73
2022/10/26 10:37:43;;;;;;;20.85;4.93;;;;;;;;;;5090212;28;20028;-74
2022/10/26 10:40:17;;;;;;;17.75;4.93;;;;;;;;;;5091155;28;20032;-73
2022/10/26 10:42:43;;;;;;;23.25;4.68;;;;;;;;;;5090307;28;20136;-74
2022/10/26 10:45:20;;;;;;;20.23;4.85;;;;;;;;;;5089454;28;20475;-80
2022/10/26 10:48:20;;;;;;;17.83;5.00;;;;;;;;;;5089972;28;20400;-76
2022/10/26 10:50:59;;;;;;;16.73;4.53;;;;;;;;;;5071913;28;20036;-80
2022/10/26 10:53:44;;;;;;;23.63;5.05;;;;;;;;;;5090184;28;20521;-84
2022/10/26 10:56:44;;;;;;;13.23;4.22;;;;;;;;;;5071878;28;20043;-79
2022/10/26 10:59:35;;;;;;;18.35;4.90;;;;;;;;;;5090415;28;20474;-80
2022/10/26 11:02:22;;;;;;;23.25;4.90;;;;;;;;;;5090179;28;20082;-82
2022/10/26 11:05:18;;;;;;;17.27;4.72;;;;;;;;;;5090237;28;20051;-81
2022/10/26 11:07:54;;;;;;;19.92;5.10;;;;;;;;;;5071796;28;20028;-79
2022/10/26 11:10:24;;;;;;;17.40;5.10;;;;;;;;;;5091970;28;20024;-76
2022/10/26 11:12:58;;;;;;;18.02;4.90;;;;;;;;;;5088981;28;20406;-75
2022/10/26 11:15:27;;;;;;;19.33;4.65;;;;;;;;;;5090313;28;20081;-74
2022/10/26 11:18:17;;;;;;;22.42;5.18;;;;;;;;;;5089918;28;20020;-78
2022/10/26 11:20:48;;;;;;;18.83;5.07;;;;;;;;;;5089895;28;20565;-78
2022/10/26 11:23:24;;;;;;;24.83;5.25;;;;;;;;;;5088238;28;20407;-78
2022/10/26 11:25:55;;;;;;;15.15;5.25;;;;;;;;;;5089359;28;20024;-73
2022/10/26 11:28:47;;;;;;;18.48;4.70;;;;;;;;;;5089319;28;20032;-72
2022/10/26 11:31:22;;;;;;;18.13;4.75;;;;;;;;;;5090027;28;20024;-72
2022/10/26 11:34:02;;;;;;;16.95;4.72;;;;;;;;;;5090101;28;20020;-72
2022/10/26 11:36:30;;;;;;;;;;;;;;;;;;5090506;28;20024;-72
2022/10/26 11:39:28;;;;;;;17.60;4.68;;;;;;;;;;5089280;28;19912;-72
2022/10/26 11:42:22;;;;;;;21.70;4.75;;;;;;;;;;5088561;28;20048;-70
2022/10/26 11:45:00;;;;;;;25.00;5.00;;;;;;;;;;5081806;28;20581;-73
2022/10/26 11:47:41;;;;;;;26.45;4.72;;;;;;;;;;5088992;28;20049;-71
2022/10/26 11:50:21;;;;;;;24.17;5.07;;;;;;;;;;5088768;28;20028;-71
2022/10/26 11:52:55;;;;;;;30.83;4.83;;;;;;;;;;5088847;28;20036;-73
2022/10/26 11:55:21;;;;;;;17.88;4.60;;;;;;;;;;5080558;28;20044;-72
2022/10/26 11:57:48;;;;;;;21.05;4.72;;;;;;;;;;5068148;28;20040;-72
2022/10/26 12:00:16;;;;;;;25.08;5.38;;;;;;;;;;5068789;28;20033;-72
2022/10/26 12:02:49;;;;;;;17.15;4.68;;;;;;;;;;5068606;28;20483;-71
2022/10/26 12:05:14;;;;;;;22.42;4.97;;;;;;;;;;5069041;28;20055;-73
2022/10/26 12:07:46;;;;;;;18.65;4.78;;;;;;;;;;5050501;28;20404;-76
2022/10/26 12:10:36;;;;;;;18.15;4.75;;;;;;;;;;5051149;28;20139;-77
2022/10/26 12:13:26;;;;;;;23.40;4.50;;;;;;;;;;5055894;28;20132;-74
2022/10/26 12:16:23;;;;;;;16.65;4.63;;;;;;;;;;5062864;28;20032;-77
2022/10/26 12:18:53;;;;;;;21.67;4.40;;;;;;;;;;5021897;28;20037;-73
2022/10/26 12:21:19;;;;;;;21.00;4.90;;;;;;;;;;5068336;28;20063;-70
2022/10/26 12:23:59;;;;;;;16.90;4.45;;;;;;;;;;5074323;28;20028;-73
2022/10/26 12:26:27;;;;;;;20.27;5.00;;;;;;;;;;5071086;28;20031;-75
2022/10/26 12:29:01;;;;;;;20.63;4.78;;;;;;;;;;5068232;28;20062;-71
2022/10/26 12:31:36;;;;;;;20.38;4.80;;;;;;;;;;5068644;28;20078;-70
2022/10/26 12:34:12;;;;;;;15.02;4.38;;;;;;;;;;5068190;28;20021;-70
2022/10/26 12:36:56;;;;;;;19.00;4.55;;;;;;;;;;5068805;28;20028;-73
2022/10/26 12:39:35;;;;;;;17.38;4.72;;;;;;;;;;5068275;28;20025;-72
2022/10/26 12:42:03;;;;;;;17.52;4.55;;;;;;;;;;5068377;28;20025;-73
2022/10/26 12:44:34;;;;;;;22.90;4.60;;;;;;;;;;5068308;28;20125;-77
2022/10/26 12:47:00;;;;;;;21.27;4.00;;;;;;;;;;5050515;28;20032;-74
2022/10/26 12:50:00;;;;;;;20.83;4.30;;;;;;;;;;5068635;28;20491;-78
2022/10/26 12:52:29;;;;;;;17.90;4.50;;;;;;;;;;5068565;28;20056;-75
2022/10/26 12:55:18;;;;;;;15.10;4.72;;;;;;;;;;5068021;28;20055;-78
2022/10/26 12:57:51;;;;;;;17.98;4.65;;;;;;;;;;5020867;28;20130;-73
2022/10/26 13:00:21;;;;;;;17.98;4.25;;;;;;;;;;5068496;28;20025;-75
2022/10/26 13:03:16;;;;;;;15.02;4.53;;;;;;;;;;5068436;28;20055;-78
2022/10/26 13:06:03;;;;;;;13.57;3.97;;;;;;;;;;5020870;28;20048;-80
2022/10/26 13:08:39;;;;;;;24.67;4.60;;;;;;;;;;5050185;28;20037;-73
2022/10/26 13:11:12;;;;;;;22.92;4.38;;;;;;;;;;5068356;28;20115;-75
2022/10/26 13:13:40;;;;;;;18.65;4.22;;;;;;;;;;5067374;28;20514;-77
2022/10/26 13:16:10;;;;;;;16.85;4.35;;;;;;;;;;5068073;28;20036;-77
2022/10/26 13:18:44;;;;;;;19.20;4.65;;;;;;;;;;5069824;28;20029;-75
2022/10/26 13:21:15;;;;;;;16.80;4.18;;;;;;;;;;5072559;28;20033;-75
2022/10/26 13:23:53;;;;;;;21.17;4.47;;;;;;;;;;5071713;28;20060;-75
2022/10/26 13:26:24;;;;;;;17.55;4.43;;;;;;;;;;5072561;28;20043;-76
2022/10/26 13:28:52;;;;;;;18.20;4.70;;;;;;;;;;5071623;28;20075;-74
2022/10/26 13:31:26;;;;;;;19.05;4.35;;;;;;;;;;5087497;28;20677;-74
2022/10/26 13:34:13;;;;;;;16.75;4.05;;;;;;;;;;5091835;28;20658;-74
2022/10/26 13:36:48;;;;;;;15.23;3.92;;;;;;;;;;5059551;28;20089;-72
2022/10/26 13:39:19;;;;;;;20.70;4.00;;;;;;;;;;5073726;28;20069;-80
2022/10/26 13:41:47;;;;;;;15.32;3.60;;;;;;;;;;5091855;28;20483;-80
2022/10/26 13:44:21;;;;;;;22.77;4.82;;;;;;;;;;5090281;28;20114;-77
2022/10/26 13:46:53;;;;;;;20.52;3.85;;;;;;;;;;5092058;28;20031;-81
2022/10/26 13:49:39;;;;;;;13.43;4.13;;;;;;;;;;5074019;28;20028;-80
2022/10/26 13:52:12;;;;;;;20.60;4.68;;;;;;;;;;5069900;28;20024;-81
2022/10/26 13:54:54;;;;;;;19.40;4.80;;;;;;;;;;5070825;28;20496;-84
2022/10/26 13:57:28;;;;;;;17.75;4.70;;;;;;;;;;5070206;28;20021;-81
2022/10/26 13:59:57;;;;;;;17.75;4.70;;;;;;;;;;5070425;28;20023;-81
2022/10/26 14:02:29;;;;;;;18.48;4.47;;;;;;;;;;5071017;28;20016;-81
2022/10/26 14:05:03;;;;;;;21.15;4.72;;;;;;;;;;5070323;28;20016;-82
2022/10/26 14:07:51;;;;;;;19.20;4.30;;;;;;;;;;5071171;28;20423;-81
2022/10/26 14:10:40;;;;;;;19.25;5.28;;;;;;;;;;5071413;28;20119;-78
2022/10/26 14:13:08;;;;;;;18.90;5.15;;;;;;;;;;5066505;28;20044;-78
2022/10/26 14:15:35;;;;;;;20.80;5.22;;;;;;;;;;5070821;28;20025;-79
2022/10/26 14:18:02;;;;;;;20.42;5.07;;;;;;;;;;5071047;28;20050;-81
2022/10/26 14:20:30;;;;;;;21.77;5.40;;;;;;;;;;5071064;28;20029;-77
2022/10/26 14:22:55;;;;;;;23.83;5.00;;;;;;;;;;5072089;28;20074;-79
2022/10/26 14:25:26;;;;;;;19.38;4.78;;;;;;;;;;5071642;28;20024;-78
2022/10/26 14:27:52;;;;;;;;;;;;;;;;;;5073504;28;20030;-83
2022/10/26 14:30:29;;;;;;;17.00;5.03;;;;;;;;;;5071975;28;19912;-78
2022/10/26 14:32:58;;;;;;;18.25;4.90;;;;;;;;;;5072003;28;20614;-79
2022/10/26 14:35:29;;;;;;;19.88;4.78;;;;;;;;;;5090642;28;20023;-78
2022/10/26 14:38:05;;;;;;;17.45;4.63;;;;;;;;;;5090513;28;20024;-82
2022/10/26 14:40:33;;;;;;;18.25;4.50;;;;;;;;;;5090692;28;20024;-81
2022/10/26 14:43:01;;;;;;;16.77;4.72;;;;;;;;;;5090104;28;20453;-84
2022/10/26 14:45:26;;;;;;;20.48;5.00;;;;;;;;;;5072637;28;20055;-76
2022/10/26 14:47:53;;;;;;;14.82;5.03;;;;;;;;;;5084899;28;20062;-77
2022/10/26 14:50:20;;;;;;;20.13;4.55;;;;;;;;;;5089943;28;20046;-82
2022/10/26 14:52:54;;;;;;;17.52;4.63;;;;;;;;;;5072472;28;20074;-85
2022/10/26 14:55:20;;;;;;;22.30;5.43;;;;;;;;;;5092608;28;20044;-78
2022/10/26 14:57:49;;;;;;;25.20;4.88;;;;;;;;;;5097371;28;20016;-77